createdAt,value
2023-01-26T00:01:23.921Z,0.28
2023-01-26T00:03:03.525Z,0.28
2023-01-26T00:04:43.295Z,0.28
2023-01-26T00:06:23.068Z,0.28
2023-01-26T00:08:02.954Z,0.27
2023-01-26T00:09:42.585Z,0.28
2023-01-26T00:11:22.342Z,0.28
2023-01-26T00:13:02.153Z,0.29
2023-01-26T00:14:41.877Z,0.28
2023-01-26T00:16:21.640Z,0.28
2023-01-26T00:18:01.406Z,0.28
2023-01-26T00:19:41.169Z,0.28
2023-01-26T00:21:20.959Z,0.28
2023-01-26T00:23:00.700Z,0.28
2023-01-26T00:24:40.494Z,0.28
2023-01-26T00:26:20.245Z,0.28
2023-01-26T00:27:59.995Z,0.27
2023-01-26T00:29:39.759Z,0.27
2023-01-26T00:31:19.663Z,0.28
2023-01-26T00:32:59.373Z,0.27
2023-01-26T00:34:39.052Z,0.27
2023-01-26T00:36:19.099Z,0.27
2023-01-26T00:37:58.578Z,0.27
2023-01-26T00:39:38.360Z,0.28
2023-01-26T00:41:18.098Z,0.28
2023-01-26T00:42:57.863Z,0.27
2023-01-26T00:44:37.625Z,0.28
2023-01-26T00:46:17.391Z,0.28
2023-01-26T00:47:57.149Z,0.28
2023-01-26T00:49:36.930Z,0.28
2023-01-26T00:51:16.684Z,0.28
2023-01-26T00:52:56.443Z,0.28
2023-01-26T00:54:36.212Z,0.29
2023-01-26T00:56:15.984Z,0.29
2023-01-26T00:57:55.760Z,0.28
2023-01-26T00:59:35.527Z,0.28
2023-01-26T01:01:15.270Z,0.29
2023-01-26T01:02:55.046Z,0.28
2023-01-26T01:04:34.807Z,0.29
2023-01-26T01:06:14.558Z,0.28
2023-01-26T01:07:54.323Z,0.28
2023-01-26T01:09:34.089Z,0.28
2023-01-26T01:11:13.851Z,0.28
2023-01-26T01:12:53.624Z,0.28
2023-01-26T01:14:33.378Z,0.28
2023-01-26T01:16:13.141Z,0.28
2023-01-26T01:17:52.899Z,0.29
2023-01-26T01:19:32.674Z,0.28
2023-01-26T01:21:12.446Z,0.28
2023-01-26T01:22:52.217Z,0.28
2023-01-26T01:24:31.969Z,0.28
2023-01-26T01:26:11.734Z,0.28
2023-01-26T01:27:51.491Z,0.29
2023-01-26T01:29:31.277Z,0.27
2023-01-26T01:31:11.012Z,0.28
2023-01-26T01:32:50.786Z,0.27
2023-01-26T01:34:30.566Z,0.28
2023-01-26T01:36:10.312Z,0.28
2023-01-26T01:37:50.074Z,0.28
2023-01-26T01:39:29.831Z,0.27
2023-01-26T01:41:09.601Z,0.27
2023-01-26T01:42:49.371Z,0.28
2023-01-26T01:44:29.178Z,0.28
2023-01-26T01:46:08.886Z,0.28
2023-01-26T01:47:48.663Z,0.28
2023-01-26T01:49:28.480Z,0.28
2023-01-26T01:51:08.183Z,0.28
2023-01-26T01:52:47.948Z,0.28
2023-01-26T01:54:27.705Z,0.27
2023-01-26T01:56:07.470Z,0.28
2023-01-26T01:57:47.253Z,0.27
2023-01-26T01:59:27.004Z,0.28
2023-01-26T02:01:06.789Z,0.29
2023-01-26T02:02:46.533Z,0.29
2023-01-26T02:04:26.289Z,0.28
2023-01-26T02:06:06.069Z,0.27
2023-01-26T02:07:45.810Z,0.28
2023-01-26T02:09:25.577Z,0.29
2023-01-26T02:11:05.336Z,0.29
2023-01-26T02:12:45.117Z,0.28
2023-01-26T02:14:24.876Z,0.28
2023-01-26T02:16:04.652Z,0.28
2023-01-26T02:17:44.413Z,0.26
2023-01-26T02:19:24.165Z,0.28
2023-01-26T02:21:03.935Z,0.28
2023-01-26T02:24:23.453Z,0.29
2023-01-26T02:26:03.238Z,0.27
2023-01-26T02:27:42.991Z,0.27
2023-01-26T02:29:22.937Z,0.28
2023-01-26T02:31:02.514Z,0.28
2023-01-26T02:32:42.273Z,0.27
2023-01-26T02:34:22.191Z,0.29
2023-01-26T02:36:01.806Z,0.29
2023-01-26T02:37:41.570Z,0.28
2023-01-26T02:39:21.336Z,0.28
2023-01-26T02:41:01.099Z,0.28
2023-01-26T02:42:40.856Z,0.29
2023-01-26T02:44:20.630Z,0.29
2023-01-26T02:46:00.380Z,0.29
2023-01-26T02:47:40.159Z,0.29
2023-01-26T02:49:19.925Z,0.28
2023-01-26T02:50:59.677Z,0.29
2023-01-26T02:52:39.437Z,0.29
2023-01-26T02:54:19.209Z,0.29
2023-01-26T02:55:58.977Z,0.29
2023-01-26T02:57:38.742Z,0.29
2023-01-26T02:59:18.491Z,0.29
2023-01-26T03:00:58.268Z,0.29
2023-01-26T03:02:38.029Z,0.29
2023-01-26T03:04:17.814Z,0.29
2023-01-26T03:05:57.545Z,0.29
2023-01-26T03:07:37.325Z,0.29
2023-01-26T03:09:17.081Z,0.28
2023-01-26T03:10:56.845Z,0.29
2023-01-26T03:12:36.598Z,0.29
2023-01-26T03:14:16.369Z,0.29
2023-01-26T03:15:56.147Z,0.3
2023-01-26T03:17:35.916Z,0.31
2023-01-26T03:19:15.661Z,0.29
2023-01-26T03:20:55.436Z,0.3
2023-01-26T03:22:35.205Z,0.29
2023-01-26T03:24:14.962Z,0.29
2023-01-26T03:25:54.732Z,0.29
2023-01-26T03:27:34.489Z,0.29
2023-01-26T03:29:14.253Z,0.3
2023-01-26T03:30:53.995Z,0.3
2023-01-26T03:34:13.546Z,0.28
2023-01-26T03:35:53.305Z,0.27
2023-01-26T03:37:33.073Z,0.28
2023-01-26T03:39:12.830Z,0.28
2023-01-26T03:40:52.593Z,0.3
2023-01-26T03:42:32.351Z,0.29
2023-01-26T03:44:12.102Z,0.3
2023-01-26T03:45:51.882Z,0.29
2023-01-26T03:47:31.648Z,0.3
2023-01-26T03:49:11.408Z,0.3
2023-01-26T03:50:51.183Z,0.3
2023-01-26T03:52:30.945Z,0.3
2023-01-26T03:54:10.707Z,0.3
2023-01-26T03:55:50.466Z,0.3
2023-01-26T03:57:30.218Z,0.3
2023-01-26T03:59:10.032Z,0.29
2023-01-26T04:00:49.763Z,0.32
2023-01-26T04:02:29.525Z,0.32
2023-01-26T04:04:09.295Z,0.32
2023-01-26T04:05:49.067Z,0.32
2023-01-26T04:07:28.881Z,0.31
2023-01-26T04:09:08.587Z,0.31
2023-01-26T04:10:48.336Z,0.32
2023-01-26T04:12:28.111Z,0.31
2023-01-26T04:14:07.873Z,0.32
2023-01-26T04:15:47.637Z,0.31
2023-01-26T04:17:27.405Z,0.3
2023-01-26T04:19:07.159Z,0.34
2023-01-26T04:20:46.934Z,0.33
2023-01-26T04:22:26.702Z,0.35
2023-01-26T04:24:06.558Z,0.34
2023-01-26T04:25:46.209Z,0.34
2023-01-26T04:29:05.736Z,0.34
2023-01-26T04:30:45.508Z,0.34
2023-01-26T04:32:25.281Z,0.34
2023-01-26T04:34:05.031Z,0.36
2023-01-26T04:35:44.807Z,0.36
2023-01-26T04:37:24.592Z,0.35
2023-01-26T04:39:04.345Z,0.36
2023-01-26T04:40:44.090Z,0.36
2023-01-26T04:42:23.850Z,0.36
2023-01-26T04:44:03.628Z,0.35
2023-01-26T04:45:43.379Z,0.34
2023-01-26T04:47:23.160Z,0.36
2023-01-26T04:49:02.919Z,0.36
2023-01-26T04:50:42.676Z,0.36
2023-01-26T04:52:22.487Z,0.35
2023-01-26T04:54:02.221Z,0.35
2023-01-26T04:55:41.955Z,0.37
2023-01-26T04:57:21.742Z,0.36
2023-01-26T04:59:01.502Z,0.36
2023-01-26T05:00:41.255Z,0.37
2023-01-26T05:02:21.029Z,0.38
2023-01-26T05:04:00.780Z,0.38
2023-01-26T05:05:40.541Z,0.39
2023-01-26T05:07:20.304Z,0.39
2023-01-26T05:09:00.097Z,0.39
2023-01-26T05:10:39.849Z,0.39
2023-01-26T05:12:19.609Z,0.39
2023-01-26T05:13:59.376Z,0.4
2023-01-26T05:15:39.123Z,0.4
2023-01-26T05:17:18.887Z,0.4
2023-01-26T05:18:58.668Z,0.39
2023-01-26T05:20:38.417Z,0.41
2023-01-26T05:22:18.199Z,0.41
2023-01-26T05:23:57.975Z,0.41
2023-01-26T05:25:37.717Z,0.4
2023-01-26T05:27:17.474Z,0.41
2023-01-26T05:28:57.246Z,0.41
2023-01-26T05:30:37.009Z,0.42
2023-01-26T05:32:16.774Z,0.4
2023-01-26T05:33:56.539Z,0.4
2023-01-26T05:35:36.288Z,0.42
2023-01-26T05:37:16.072Z,0.4
2023-01-26T05:38:55.849Z,0.4
2023-01-26T05:40:35.598Z,0.42
2023-01-26T05:42:15.358Z,0.41
2023-01-26T05:43:55.118Z,0.43
2023-01-26T05:45:34.884Z,0.41
2023-01-26T05:47:14.649Z,0.42
2023-01-26T05:48:54.407Z,0.43
2023-01-26T05:50:34.162Z,0.43
2023-01-26T05:52:13.923Z,0.45
2023-01-26T05:53:53.696Z,0.46
2023-01-26T05:55:33.453Z,0.47
2023-01-26T05:57:13.244Z,0.49
2023-01-26T05:58:52.987Z,0.49
2023-01-26T06:00:32.785Z,0.51
2023-01-26T06:02:12.529Z,0.52
2023-01-26T06:03:52.287Z,0.57
2023-01-26T06:05:32.033Z,0.61
2023-01-26T06:07:11.817Z,0.67
2023-01-26T06:08:51.575Z,0.78
2023-01-26T06:10:31.341Z,0.88
2023-01-26T06:12:11.111Z,1
2023-01-26T06:13:50.879Z,1.16
2023-01-26T06:15:30.731Z,1.38
2023-01-26T06:17:10.412Z,1.77
2023-01-26T06:18:50.156Z,2.28
2023-01-26T06:20:29.933Z,3.09
2023-01-26T06:22:09.672Z,4.42
2023-01-26T06:23:49.448Z,6.07
2023-01-26T06:25:29.209Z,7.49
2023-01-26T06:27:09.022Z,9.18
2023-01-26T06:28:48.750Z,10.87
2023-01-26T06:30:28.531Z,12.21
2023-01-26T06:33:48.021Z,12.35
2023-01-26T06:35:27.793Z,12.37
2023-01-26T06:37:07.568Z,12.38
2023-01-26T06:38:47.317Z,12.4
2023-01-26T06:40:27.073Z,12.4
2023-01-26T06:42:06.875Z,12.44
2023-01-26T06:43:46.789Z,12.42
2023-01-26T06:45:26.368Z,12.43
2023-01-26T06:47:06.306Z,12.45
2023-01-26T06:48:45.942Z,12.46
2023-01-26T06:50:25.720Z,12.48
2023-01-26T06:52:05.443Z,12.47
2023-01-26T06:53:45.189Z,12.47
2023-01-26T06:55:24.956Z,12.47
2023-01-26T06:57:04.740Z,12.48
2023-01-26T06:58:44.493Z,12.48
2023-01-26T07:00:24.261Z,12.5
2023-01-26T07:03:43.842Z,12.53
2023-01-26T07:05:23.542Z,12.54
2023-01-26T07:07:03.304Z,12.56
2023-01-26T07:08:43.074Z,12.57
2023-01-26T07:10:22.836Z,12.57
2023-01-26T07:12:02.602Z,12.58
2023-01-26T07:13:42.381Z,12.59
2023-01-26T07:15:22.124Z,12.59
2023-01-26T07:17:01.897Z,12.57
2023-01-26T07:18:41.657Z,12.55
2023-01-26T07:20:21.494Z,12.57
2023-01-26T07:22:01.356Z,12.57
2023-01-26T07:23:40.962Z,12.54
2023-01-26T07:25:20.731Z,12.57
2023-01-26T07:27:00.485Z,12.58
2023-01-26T07:28:40.243Z,12.58
2023-01-26T07:30:20.013Z,12.59
2023-01-26T07:31:59.762Z,12.6
2023-01-26T07:33:39.538Z,12.6
2023-01-26T07:35:19.300Z,12.62
2023-01-26T07:36:59.063Z,12.64
2023-01-26T07:38:38.817Z,12.66
2023-01-26T07:40:18.606Z,31.05
2023-01-26T07:41:58.412Z,23.21
2023-01-26T07:43:38.111Z,18.96
2023-01-26T07:45:17.872Z,20.37
2023-01-26T07:46:57.640Z,23.42
2023-01-26T07:48:37.402Z,14.96
2023-01-26T07:50:17.177Z,15.07
2023-01-26T07:51:56.926Z,14.63
2023-01-26T07:53:36.686Z,14.67
2023-01-26T07:55:16.463Z,14.45
2023-01-26T07:56:56.212Z,13.69
2023-01-26T07:58:35.972Z,13.69
2023-01-26T08:00:15.821Z,29.52
2023-01-26T08:01:55.516Z,16.15
2023-01-26T08:03:35.281Z,18.01
2023-01-26T08:05:15.052Z,20.15
2023-01-26T08:06:54.843Z,16.29
2023-01-26T08:08:34.571Z,20.45
2023-01-26T08:10:14.317Z,13.78
2023-01-26T08:11:54.093Z,27.48
2023-01-26T08:13:33.852Z,14.61
2023-01-26T08:16:53.433Z,13.65
2023-01-26T08:18:33.153Z,13.72
2023-01-26T08:20:12.932Z,13.72
2023-01-26T08:21:52.671Z,13.73
2023-01-26T08:23:32.434Z,13.7
2023-01-26T08:25:12.212Z,13.69
2023-01-26T08:26:51.984Z,13.7
2023-01-26T08:28:31.821Z,13.74
2023-01-26T08:30:11.548Z,13.76
2023-01-26T08:31:51.262Z,13.78
2023-01-26T08:33:31.017Z,13.79
2023-01-26T08:35:10.790Z,13.76
2023-01-26T08:36:50.612Z,13.76
2023-01-26T08:38:30.307Z,13.77
2023-01-26T08:40:10.084Z,13.76
2023-01-26T08:41:49.860Z,13.74
2023-01-26T08:43:29.614Z,13.77
2023-01-26T08:45:09.375Z,13.76
2023-01-26T08:46:49.148Z,13.72
2023-01-26T08:48:28.897Z,13.69
2023-01-26T08:50:08.737Z,13.67
2023-01-26T08:51:48.536Z,14.46
2023-01-26T08:53:28.187Z,14.64
2023-01-26T08:55:07.977Z,20.09
2023-01-26T08:56:47.721Z,14.42
2023-01-26T08:58:27.484Z,14.61
2023-01-26T09:00:07.258Z,14.49
2023-01-26T09:03:26.789Z,13.74
2023-01-26T09:05:06.547Z,13.75
2023-01-26T09:06:46.302Z,13.74
2023-01-26T09:08:26.112Z,13.76
2023-01-26T09:10:05.836Z,13.76
2023-01-26T09:11:45.594Z,13.76
2023-01-26T09:13:25.358Z,13.77
2023-01-26T09:15:05.118Z,13.77
2023-01-26T09:16:44.894Z,13.79
2023-01-26T09:18:24.640Z,13.77
2023-01-26T09:20:04.393Z,13.77
2023-01-26T09:21:44.175Z,13.79
2023-01-26T09:23:23.952Z,13.78
2023-01-26T09:25:03.691Z,13.79
2023-01-26T09:26:43.514Z,13.81
2023-01-26T09:28:23.216Z,13.81
2023-01-26T09:30:02.988Z,13.81
2023-01-26T09:31:42.755Z,13.8
2023-01-26T09:33:22.518Z,13.81
2023-01-26T09:36:42.047Z,13.83
2023-01-26T09:38:21.810Z,13.83
2023-01-26T09:40:01.573Z,13.84
2023-01-26T09:41:41.354Z,13.86
2023-01-26T09:43:21.117Z,13.86
2023-01-26T09:45:00.864Z,13.87
2023-01-26T09:46:40.625Z,13.89
2023-01-26T09:50:00.166Z,13.88
2023-01-26T09:51:39.932Z,13.9
2023-01-26T09:53:19.682Z,13.88
2023-01-26T09:54:59.483Z,13.9
2023-01-26T09:56:39.235Z,13.95
2023-01-26T09:58:18.978Z,13.94
2023-01-26T09:59:58.747Z,17.5
2023-01-26T10:01:38.511Z,14
2023-01-26T10:03:18.259Z,14.01
2023-01-26T10:04:58.023Z,13.99
2023-01-26T10:06:37.796Z,14.02
2023-01-26T10:08:17.599Z,14
2023-01-26T10:09:57.343Z,13.98
2023-01-26T10:11:37.101Z,14.02
2023-01-26T10:13:16.860Z,13.99
2023-01-26T10:14:56.627Z,13.99
2023-01-26T10:16:36.399Z,13.99
2023-01-26T10:18:16.148Z,13.99
2023-01-26T10:19:55.961Z,13.98
2023-01-26T10:21:35.721Z,14
2023-01-26T10:23:15.421Z,13.99
2023-01-26T10:24:55.206Z,13.99
2023-01-26T10:26:34.995Z,14.01
2023-01-26T10:28:14.732Z,14
2023-01-26T10:29:54.513Z,14.01
2023-01-26T10:31:34.255Z,14.04
2023-01-26T10:33:14.034Z,14.03
2023-01-26T10:34:53.785Z,14.03
2023-01-26T10:36:33.541Z,14.02
2023-01-26T10:38:13.298Z,14.02
2023-01-26T10:39:53.072Z,14.03
2023-01-26T10:41:32.826Z,14.04
2023-01-26T10:43:12.604Z,14.04
2023-01-26T10:46:32.160Z,14.04
2023-01-26T10:48:11.883Z,14.03
2023-01-26T10:49:51.730Z,14.04
2023-01-26T10:51:31.424Z,14.02
2023-01-26T10:53:11.191Z,14.07
2023-01-26T10:56:30.756Z,14.05
2023-01-26T10:58:10.486Z,14.03
2023-01-26T11:01:29.999Z,14.07
2023-01-26T11:03:09.782Z,14.04
2023-01-26T11:04:49.541Z,14.05
2023-01-26T11:06:29.294Z,14.05
2023-01-26T11:08:09.088Z,14.05
2023-01-26T11:09:48.824Z,14.05
2023-01-26T11:11:28.591Z,14.07
2023-01-26T11:13:08.351Z,14.06
2023-01-26T11:14:48.106Z,14.04
2023-01-26T11:16:27.901Z,14.05
2023-01-26T11:19:47.408Z,14.04
2023-01-26T11:21:27.199Z,14.07
2023-01-26T11:24:46.699Z,14.05
2023-01-26T11:26:26.470Z,14.07
2023-01-26T11:28:06.307Z,14.07
2023-01-26T11:29:46.005Z,14.07
2023-01-26T11:31:25.740Z,14.06
2023-01-26T11:33:05.530Z,14.03
2023-01-26T11:34:45.288Z,14.05
2023-01-26T11:36:25.083Z,14.08
2023-01-26T11:38:04.819Z,14.07
2023-01-26T11:39:44.574Z,14.04
2023-01-26T11:41:24.334Z,14.07
2023-01-26T11:43:04.092Z,14.05
2023-01-26T11:44:43.874Z,14.11
2023-01-26T11:46:23.622Z,14.11
2023-01-26T11:48:03.428Z,14.11
2023-01-26T11:49:43.174Z,14.16
2023-01-26T11:51:22.911Z,14.16
2023-01-26T11:53:02.684Z,14.19
2023-01-26T11:54:42.448Z,14.2
2023-01-26T11:56:22.203Z,14.21
2023-01-26T11:58:01.974Z,14.24
2023-01-26T11:59:41.749Z,18.25
2023-01-26T12:01:21.594Z,15.82
2023-01-26T12:03:01.274Z,14.21
2023-01-26T12:04:41.024Z,14.19
2023-01-26T12:06:20.787Z,14.19
2023-01-26T12:08:00.569Z,14.17
2023-01-26T12:09:40.319Z,14.13
2023-01-26T12:11:20.071Z,14.14
2023-01-26T12:12:59.848Z,14.11
2023-01-26T12:14:39.614Z,14.11
2023-01-26T12:16:19.394Z,14.08
2023-01-26T12:17:59.150Z,14.1
2023-01-26T12:19:38.939Z,14.08
2023-01-26T12:21:18.671Z,14.07
2023-01-26T12:22:58.422Z,14.07
2023-01-26T12:24:38.193Z,14.07
2023-01-26T12:26:17.960Z,14.03
2023-01-26T12:27:57.728Z,14.07
2023-01-26T12:29:37.488Z,14.08
2023-01-26T12:31:17.257Z,14.08
2023-01-26T12:32:57.038Z,14.09
2023-01-26T12:34:36.772Z,14.07
2023-01-26T12:36:16.546Z,14.07
2023-01-26T12:37:56.311Z,14.11
2023-01-26T12:39:36.086Z,14.05
2023-01-26T12:41:15.836Z,14.06
2023-01-26T12:42:55.594Z,14.04
2023-01-26T12:44:35.360Z,14.03
2023-01-26T12:46:15.162Z,14.01
2023-01-26T12:47:54.889Z,14.01
2023-01-26T12:49:34.635Z,14
2023-01-26T12:51:14.433Z,14.02
2023-01-26T12:52:54.166Z,14
2023-01-26T12:54:33.991Z,14.02
2023-01-26T12:56:13.771Z,14.04
2023-01-26T12:57:53.538Z,14.02
2023-01-26T12:59:33.252Z,14.02
2023-01-26T13:01:13.006Z,14.97
2023-01-26T13:02:52.839Z,13.98
2023-01-26T13:04:32.593Z,13.99
2023-01-26T13:06:12.275Z,13.94
2023-01-26T13:07:52.046Z,13.95
2023-01-26T13:09:31.846Z,13.93
2023-01-26T13:12:51.357Z,13.91
2023-01-26T13:14:31.137Z,13.92
2023-01-26T13:16:10.865Z,13.88
2023-01-26T13:17:50.621Z,13.92
2023-01-26T13:19:30.400Z,13.92
2023-01-26T13:21:10.147Z,13.91
2023-01-26T13:22:49.927Z,13.87
2023-01-26T13:24:29.690Z,13.88
2023-01-26T13:26:09.448Z,13.86
2023-01-26T13:27:49.223Z,13.85
2023-01-26T13:29:28.985Z,13.84
2023-01-26T13:31:08.746Z,13.84
2023-01-26T13:32:48.518Z,13.84
2023-01-26T13:34:28.271Z,13.79
2023-01-26T13:36:08.078Z,13.8
2023-01-26T13:37:47.821Z,13.77
2023-01-26T13:39:27.589Z,13.8
2023-01-26T13:41:07.329Z,13.81
2023-01-26T13:42:47.086Z,13.78
2023-01-26T13:44:26.873Z,13.8
2023-01-26T13:46:06.623Z,13.76
2023-01-26T13:47:46.396Z,13.78
2023-01-26T13:49:26.153Z,13.76
2023-01-26T13:51:05.943Z,13.77
2023-01-26T13:52:45.678Z,13.78
2023-01-26T13:54:25.433Z,13.8
2023-01-26T13:56:05.210Z,13.8
2023-01-26T13:57:44.970Z,13.76
2023-01-26T13:59:24.734Z,13.8
2023-01-26T14:01:04.569Z,15.4
2023-01-26T14:02:44.258Z,13.79
2023-01-26T14:04:24.020Z,13.8
2023-01-26T14:06:03.828Z,13.8
2023-01-26T14:07:43.550Z,13.81
2023-01-26T14:09:23.323Z,13.7
2023-01-26T14:11:03.079Z,13.73
2023-01-26T14:12:42.835Z,13.76
2023-01-26T14:14:22.616Z,13.76
2023-01-26T14:16:02.434Z,13.74
2023-01-26T14:17:42.143Z,13.74
2023-01-26T14:19:21.948Z,13.67
2023-01-26T14:21:01.752Z,14.73
2023-01-26T14:22:41.468Z,16.41
2023-01-26T14:24:21.196Z,22.92
2023-01-26T14:26:00.943Z,25.35
2023-01-26T14:27:40.722Z,15.02
2023-01-26T14:29:20.496Z,22.4
2023-01-26T14:31:00.232Z,13.14
2023-01-26T14:32:40.016Z,21.59
2023-01-26T14:34:19.764Z,21.35
2023-01-26T14:35:59.541Z,19.74
2023-01-26T14:37:39.290Z,13.14
2023-01-26T14:39:19.053Z,19.49
2023-01-26T14:40:58.819Z,21.05
2023-01-26T14:42:38.625Z,21.27
2023-01-26T14:44:18.360Z,19.18
2023-01-26T14:45:58.116Z,22.08
2023-01-26T14:47:37.956Z,16.44
2023-01-26T14:49:17.653Z,30.65
2023-01-26T14:50:57.419Z,28.15
2023-01-26T14:52:37.177Z,12.64
2023-01-26T14:54:16.936Z,12.63
2023-01-26T14:55:56.706Z,12.63
2023-01-26T14:57:36.462Z,12.62
2023-01-26T14:59:16.231Z,12.61
2023-01-26T15:00:55.993Z,12.6
2023-01-26T15:02:35.760Z,12.6
2023-01-26T15:04:15.511Z,12.59
2023-01-26T15:05:55.286Z,12.59
2023-01-26T15:07:35.067Z,12.58
2023-01-26T15:09:14.824Z,12.57
2023-01-26T15:10:54.578Z,12.57
2023-01-26T15:12:34.343Z,12.55
2023-01-26T15:14:14.163Z,12.56
2023-01-26T15:15:53.872Z,12.55
2023-01-26T15:17:33.626Z,12.54
2023-01-26T15:19:13.544Z,12.52
2023-01-26T15:20:53.279Z,12.52
2023-01-26T15:22:33.006Z,12.51
2023-01-26T15:24:12.676Z,12.51
2023-01-26T15:25:52.441Z,12.5
2023-01-26T15:27:32.200Z,12.49
2023-01-26T15:29:11.966Z,12.49
2023-01-26T15:30:51.737Z,12.48
2023-01-26T15:32:31.512Z,12.47
2023-01-26T15:34:11.273Z,12.47
2023-01-26T15:35:51.023Z,12.46
2023-01-26T15:37:30.803Z,12.45
2023-01-26T15:39:10.561Z,12.45
2023-01-26T15:40:50.318Z,12.44
2023-01-26T15:42:30.109Z,12.44
2023-01-26T15:44:09.857Z,12.44
2023-01-26T15:45:49.632Z,12.44
2023-01-26T15:47:29.362Z,12.44
2023-01-26T15:49:09.169Z,12.44
2023-01-26T15:50:48.913Z,12.44
2023-01-26T15:52:28.680Z,12.41
2023-01-26T15:54:08.428Z,12.4
2023-01-26T15:55:48.183Z,12.4
2023-01-26T15:57:27.947Z,12.37
2023-01-26T15:59:07.736Z,12.35
2023-01-26T16:00:47.487Z,12.31
2023-01-26T16:02:27.275Z,11.89
2023-01-26T16:04:07.009Z,9.84
2023-01-26T16:05:46.793Z,8.04
2023-01-26T16:07:26.546Z,6.5
2023-01-26T16:09:06.321Z,5.2
2023-01-26T16:10:46.073Z,4.1
2023-01-26T16:12:25.830Z,3.19
2023-01-26T16:14:05.597Z,2.54
2023-01-26T16:15:45.379Z,2.07
2023-01-26T16:17:25.133Z,1.72
2023-01-26T16:19:04.888Z,1.48
2023-01-26T16:20:44.655Z,1.29
2023-01-26T16:22:24.417Z,1.13
2023-01-26T16:24:04.176Z,1.01
2023-01-26T16:25:43.971Z,0.88
2023-01-26T16:27:23.709Z,0.82
2023-01-26T16:29:03.484Z,0.75
2023-01-26T16:30:43.225Z,0.7
2023-01-26T16:32:22.993Z,0.66
2023-01-26T16:34:02.820Z,0.63
2023-01-26T16:35:42.535Z,0.58
2023-01-26T16:37:22.287Z,0.6
2023-01-26T16:39:02.054Z,0.57
2023-01-26T16:40:41.823Z,0.56
2023-01-26T16:42:21.583Z,0.56
2023-01-26T16:44:01.361Z,0.55
2023-01-26T16:45:41.106Z,0.52
2023-01-26T16:47:20.874Z,0.52
2023-01-26T16:49:00.658Z,0.52
2023-01-26T16:50:40.394Z,0.52
2023-01-26T16:52:20.223Z,0.5
2023-01-26T16:53:59.928Z,0.52
2023-01-26T16:55:39.690Z,0.49
2023-01-26T16:57:19.444Z,0.51
2023-01-26T16:58:59.225Z,0.49
2023-01-26T17:00:38.991Z,0.51
2023-01-26T17:02:18.761Z,0.49
2023-01-26T17:03:58.515Z,0.51
2023-01-26T17:05:38.284Z,0.51
2023-01-26T17:07:18.046Z,0.5
2023-01-26T17:08:57.819Z,0.5
2023-01-26T17:10:37.569Z,0.48
2023-01-26T17:12:17.323Z,0.48
2023-01-26T17:13:57.102Z,0.49
2023-01-26T17:15:36.854Z,0.49
2023-01-26T17:17:16.620Z,0.49
2023-01-26T17:18:56.388Z,0.48
2023-01-26T17:20:36.152Z,0.47
2023-01-26T17:22:15.947Z,0.47
2023-01-26T17:23:55.683Z,0.47
2023-01-26T17:25:35.442Z,0.46
2023-01-26T17:27:15.211Z,0.47
2023-01-26T17:28:54.964Z,0.47
2023-01-26T17:30:34.729Z,0.48
2023-01-26T17:32:14.534Z,0.48
2023-01-26T17:33:54.262Z,0.47
2023-01-26T17:35:34.010Z,0.46
2023-01-26T17:37:13.773Z,0.46
2023-01-26T17:38:53.556Z,0.46
2023-01-26T17:40:33.309Z,0.46
2023-01-26T17:42:13.081Z,0.46
2023-01-26T17:43:52.839Z,0.46
2023-01-26T17:45:32.602Z,0.44
2023-01-26T17:47:12.376Z,0.44
2023-01-26T17:48:52.133Z,0.44
2023-01-26T17:50:31.935Z,0.44
2023-01-26T17:52:11.664Z,0.44
2023-01-26T17:53:51.424Z,0.43
2023-01-26T17:55:31.185Z,0.42
2023-01-26T17:57:10.947Z,0.43
2023-01-26T17:58:50.738Z,0.42
2023-01-26T18:00:30.474Z,0.42
2023-01-26T18:02:10.239Z,0.44
2023-01-26T18:03:50.007Z,0.43
2023-01-26T18:05:29.765Z,0.43
2023-01-26T18:07:09.548Z,0.45
2023-01-26T18:08:49.294Z,0.44
2023-01-26T18:10:29.067Z,0.44
2023-01-26T18:12:08.830Z,0.44
2023-01-26T18:13:48.688Z,0.45
2023-01-26T18:15:28.350Z,0.44
2023-01-26T18:17:08.126Z,0.43
2023-01-26T18:18:47.895Z,0.45
2023-01-26T18:20:27.643Z,0.44
2023-01-26T18:22:07.418Z,0.45
2023-01-26T18:23:47.185Z,0.44
2023-01-26T18:25:26.945Z,0.45
2023-01-26T18:27:06.710Z,0.44
2023-01-26T18:28:46.473Z,0.44
2023-01-26T18:32:05.991Z,0.44
2023-01-26T18:33:45.764Z,0.44
2023-01-26T18:35:25.521Z,0.44
2023-01-26T18:37:05.291Z,0.44
2023-01-26T18:38:45.048Z,0.44
2023-01-26T18:40:24.806Z,0.42
2023-01-26T18:42:04.590Z,0.42
2023-01-26T18:43:44.340Z,0.41
2023-01-26T18:45:24.095Z,0.41
2023-01-26T18:47:03.884Z,0.41
2023-01-26T18:48:43.636Z,0.41
2023-01-26T18:50:23.398Z,0.41
2023-01-26T18:52:03.152Z,0.41
2023-01-26T18:53:42.923Z,0.41
2023-01-26T18:55:22.683Z,0.41
2023-01-26T18:57:02.441Z,0.41
2023-01-26T18:58:42.218Z,0.41
2023-01-26T19:00:21.972Z,0.4
2023-01-26T19:02:01.745Z,0.39
2023-01-26T19:03:41.509Z,0.39
2023-01-26T19:05:21.281Z,0.38
2023-01-26T19:07:01.052Z,0.37
2023-01-26T19:08:40.876Z,0.39
2023-01-26T19:10:20.574Z,0.39
2023-01-26T19:12:00.320Z,0.41
2023-01-26T19:13:40.099Z,0.42
2023-01-26T19:15:19.881Z,0.41
2023-01-26T19:16:59.629Z,0.41
2023-01-26T19:18:39.393Z,0.42
2023-01-26T19:20:19.139Z,0.42
2023-01-26T19:21:58.909Z,0.41
2023-01-26T19:23:38.667Z,0.42
2023-01-26T19:25:18.437Z,0.41
2023-01-26T19:26:58.200Z,0.42
2023-01-26T19:28:38.030Z,0.41
2023-01-26T19:30:17.753Z,0.42
2023-01-26T19:31:57.504Z,0.42
2023-01-26T19:33:37.266Z,0.43
2023-01-26T19:35:17.014Z,0.42
2023-01-26T19:36:56.787Z,0.41
2023-01-26T19:38:36.563Z,0.41
2023-01-26T19:40:16.320Z,0.42
2023-01-26T19:41:56.074Z,0.42
2023-01-26T19:43:35.848Z,0.42
2023-01-26T19:45:15.609Z,0.4
2023-01-26T19:46:55.368Z,0.41
2023-01-26T19:48:35.138Z,0.41
2023-01-26T19:50:14.886Z,0.41
2023-01-26T19:51:54.651Z,0.41
2023-01-26T19:53:34.429Z,0.4
2023-01-26T19:55:14.198Z,0.4
2023-01-26T19:56:53.934Z,0.4
2023-01-26T19:58:33.709Z,0.4
2023-01-26T20:00:13.473Z,0.4
2023-01-26T20:01:53.260Z,0.38
2023-01-26T20:03:32.998Z,0.38
2023-01-26T20:05:12.760Z,0.38
2023-01-26T20:06:52.523Z,0.37
2023-01-26T20:08:32.312Z,0.37
2023-01-26T20:10:12.075Z,0.36
2023-01-26T20:11:51.827Z,0.36
2023-01-26T20:13:31.587Z,0.36
2023-01-26T20:15:11.343Z,0.35
2023-01-26T20:16:51.119Z,0.35
2023-01-26T20:18:30.865Z,0.36
2023-01-26T20:20:10.646Z,0.37
2023-01-26T20:21:50.447Z,0.35
2023-01-26T20:23:30.161Z,0.35
2023-01-26T20:25:10.009Z,0.35
2023-01-26T20:28:29.461Z,0.33
2023-01-26T20:30:09.251Z,0.31
2023-01-26T20:31:48.986Z,0.3
2023-01-26T20:33:28.750Z,0.3
2023-01-26T20:35:08.516Z,0.31
2023-01-26T20:36:48.271Z,0.31
2023-01-26T20:38:28.048Z,0.3
2023-01-26T20:40:07.812Z,0.32
2023-01-26T20:41:47.578Z,0.31
2023-01-26T20:43:27.327Z,0.31
2023-01-26T20:45:07.088Z,0.33
2023-01-26T20:46:46.856Z,0.33
2023-01-26T20:48:26.632Z,0.33
2023-01-26T20:50:06.380Z,0.33
2023-01-26T20:51:46.342Z,0.34
2023-01-26T20:53:25.914Z,0.34
2023-01-26T20:55:05.683Z,0.34
2023-01-26T20:56:45.467Z,0.33
2023-01-26T20:58:25.209Z,0.32
2023-01-26T21:00:04.983Z,0.33
2023-01-26T21:01:44.736Z,0.33
2023-01-26T21:03:24.487Z,0.32
2023-01-26T21:05:04.263Z,0.3
2023-01-26T21:06:44.038Z,0.31
2023-01-26T21:08:23.795Z,0.32
2023-01-26T21:10:03.535Z,0.31
2023-01-26T21:11:43.312Z,0.31
2023-01-26T21:13:23.079Z,0.3
2023-01-26T21:15:02.833Z,0.3
2023-01-26T21:16:42.618Z,0.3
2023-01-26T21:18:22.388Z,0.3
2023-01-26T21:20:02.139Z,0.3
2023-01-26T21:21:41.887Z,0.31
2023-01-26T21:23:21.666Z,0.3
2023-01-26T21:25:01.431Z,0.29
2023-01-26T21:26:41.192Z,0.31
2023-01-26T21:28:20.942Z,0.32
2023-01-26T21:30:00.701Z,0.32
2023-01-26T21:31:40.530Z,0.3
2023-01-26T21:33:20.245Z,0.28
2023-01-26T21:35:00.020Z,0.28
2023-01-26T21:36:39.768Z,0.29
2023-01-26T21:38:19.543Z,0.27
2023-01-26T21:39:59.288Z,0.27
2023-01-26T21:41:39.088Z,0.27
2023-01-26T21:43:18.834Z,0.26
2023-01-26T21:44:58.870Z,0.26
2023-01-26T21:46:38.410Z,0.26
2023-01-26T21:48:18.118Z,0.24
2023-01-26T21:49:57.888Z,0.25
2023-01-26T21:51:37.640Z,0.25
2023-01-26T21:53:17.409Z,0.23
2023-01-26T21:54:57.169Z,0.23
2023-01-26T21:56:36.926Z,0.25
2023-01-26T21:58:16.772Z,0.26
2023-01-26T21:59:56.464Z,0.26
2023-01-26T22:01:36.233Z,0.27
2023-01-26T22:03:16.004Z,0.27
2023-01-26T22:04:55.759Z,0.28
2023-01-26T22:08:15.289Z,0.28
2023-01-26T22:09:55.062Z,0.28
2023-01-26T22:11:34.804Z,0.28
2023-01-26T22:13:14.574Z,0.3
2023-01-26T22:14:54.348Z,0.29
2023-01-26T22:16:34.103Z,0.29
2023-01-26T22:18:13.918Z,0.29
2023-01-26T22:19:53.632Z,0.29
2023-01-26T22:21:33.397Z,0.29
2023-01-26T22:23:13.171Z,0.29
2023-01-26T22:24:52.927Z,0.29